Time;durP1;ratioP1;P1;durP2;ratioP2;P2;SDS_P1;SDS_P2;PMS_P1;PMS_P2;Temp;Humidity;BMP_temperature;BMP_pressure;BME280_temperature;BME280_humidity;BME280_pressure;Samples;Min_cycle;Max_cycle;Signal;HPM_P1;HPM_P2
2021/12/21 00:02:01;;;;;;;18.42;6.53;;;-1.70;99.90;;;;;;4954398;28;20057;-75
2021/12/21 00:04:26;;;;;;;21.70;7.10;;;-1.80;99.90;;;;;;4935591;29;20130;-75
2021/12/21 00:06:52;;;;;;;15.18;6.65;;;-1.80;99.90;;;;;;4954001;28;20055;-75
2021/12/21 00:09:18;;;;;;;14.43;5.25;;;-1.80;99.90;;;;;;4949812;29;20118;-76
2021/12/21 00:11:44;;;;;;;15.77;7.05;;;-1.80;99.90;;;;;;4927524;28;20078;-75
2021/12/21 00:14:17;;;;;;;20.00;9.13;;;-1.80;99.90;;;;;;4971484;28;20062;-75
2021/12/21 00:21:53;;;;;;;22.42;8.35;;;-1.90;99.90;;;;;;4923425;29;20138;-76
2021/12/21 00:24:22;;;;;;;25.35;9.75;;;-1.90;99.90;;;;;;4956004;29;20069;-75
2021/12/21 00:26:48;;;;;;;24.58;10.48;;;-2.00;99.90;;;;;;4958943;28;20066;-75
2021/12/21 00:29:13;;;;;;;22.23;10.20;;;-2.00;99.90;;;;;;4975521;28;20062;-74
2021/12/21 00:31:39;;;;;;;22.23;10.18;;;-1.60;99.90;;;;;;4942068;28;20050;-77
2021/12/21 00:34:07;;;;;;;24.52;9.18;;;-2.00;99.90;;;;;;4958048;28;20086;-75
2021/12/21 00:36:35;;;;;;;22.77;10.57;;;-2.00;99.90;;;;;;4958306;28;20051;-76
2021/12/21 00:39:05;;;;;;;22.45;9.60;;;-2.00;99.90;;;;;;4973709;28;20047;-74
2021/12/21 00:41:32;;;;;;;24.35;10.30;;;-2.10;99.90;;;;;;4958420;28;20125;-81
2021/12/21 00:43:58;;;;;;;19.77;9.02;;;-2.00;99.90;;;;;;4941358;28;20055;-76
2021/12/21 00:46:24;;;;;;;18.38;9.73;;;-2.10;99.90;;;;;;4958358;28;20077;-77
2021/12/21 00:48:55;;;;;;;20.75;10.95;;;-2.10;99.90;;;;;;4956411;28;20510;-76
2021/12/21 00:51:26;;;;;;;23.58;10.65;;;-2.10;99.90;;;;;;4958008;28;20043;-76
2021/12/21 00:53:52;;;;;;;26.27;11.13;;;-2.10;99.90;;;;;;4973975;28;20086;-75
2021/12/21 00:56:17;;;;;;;25.67;11.18;;;-1.50;99.90;;;;;;4957320;28;20054;-75
2021/12/21 00:58:43;;;;;;;27.70;10.77;;;-2.20;99.90;;;;;;4975127;28;20051;-75
2021/12/21 01:01:09;;;;;;;30.35;11.38;;;-2.20;99.90;;;;;;4974430;28;20043;-78
2021/12/21 01:03:48;;;;;;;23.88;10.63;;;-2.30;99.90;;;;;;4974433;28;20555;-75
2021/12/21 01:06:39;;;;;;;24.70;10.40;;;-2.30;99.90;;;;;;4957525;28;20054;-74
2021/12/21 01:09:38;;;;;;;26.27;10.18;;;-2.30;99.90;;;;;;4956342;28;20058;-76
2021/12/21 01:12:03;;;;;;;23.77;9.77;;;-2.30;99.90;;;;;;4972806;28;20055;-75
2021/12/21 01:17:23;;;;;;;25.30;9.23;;;-2.30;99.90;;;;;;4956284;28;20059;-76
2021/12/21 01:20:02;;;;;;;24.33;10.73;;;-2.40;99.90;;;;;;4973841;28;20437;-75
2021/12/21 01:23:07;;;;;;;26.77;10.38;;;-2.40;99.90;;;;;;4947968;29;20070;-76
2021/12/21 01:28:20;;;;;;;21.20;9.57;;;-2.30;99.90;;;;;;4938604;28;20063;-77
2021/12/21 01:31:14;;;;;;;24.52;9.20;;;-2.30;99.90;;;;;;4974452;28;20132;-74
2021/12/21 01:36:44;;;;;;;20.13;8.73;;;-2.30;99.90;;;;;;4927068;28;20061;-75
2021/12/21 01:41:55;;;;;;;17.50;7.40;;;-2.40;99.90;;;;;;4956066;28;20404;-74
2021/12/21 01:49:43;;;;;;;22.00;8.80;;;-2.20;99.90;;;;;;4937531;29;20174;-77
2021/12/21 01:52:16;;;;;;;23.33;8.65;;;-2.40;99.90;;;;;;4953639;29;20130;-75
2021/12/21 01:54:43;;;;;;;21.02;8.32;;;-2.50;99.90;;;;;;4943917;28;20039;-75
2021/12/21 01:57:09;;;;;;;20.70;8.82;;;-2.50;99.90;;;;;;4939742;28;20453;-77
2021/12/21 01:59:36;;;;;;;19.63;8.43;;;-2.50;99.90;;;;;;4972774;28;20118;-76
2021/12/21 02:02:05;;;;;;;23.42;9.60;;;-2.50;99.90;;;;;;4940118;28;20051;-83
2021/12/21 02:04:31;;;;;;;25.75;9.43;;;-2.50;99.90;;;;;;4973577;28;20043;-75
2021/12/21 02:06:56;;;;;;;21.20;10.00;;;-2.50;99.90;;;;;;4955592;28;20057;-75
2021/12/21 02:09:28;;;;;;;19.13;9.85;;;-2.50;99.90;;;;;;4955308;28;20880;-74
2021/12/21 02:11:54;;;;;;;21.52;9.35;;;-2.60;99.90;;;;;;4924794;28;20050;-76
2021/12/21 02:14:20;;;;;;;;;;;-2.60;99.90;;;;;;4955867;28;20139;-78
2021/12/21 02:17:02;;;;;;;22.80;9.52;;;-2.60;99.90;;;;;;4954623;28;20024;-78
2021/12/21 02:19:36;;;;;;;23.85;9.55;;;-2.60;99.90;;;;;;4945950;29;20063;-75
2021/12/21 02:22:24;;;;;;;25.75;9.30;;;-2.70;99.90;;;;;;4944615;28;20058;-76
2021/12/21 02:25:05;;;;;;;;;;;-2.70;99.90;;;;;;4955672;28;20400;-75
2021/12/21 02:27:42;;;;;;;19.70;8.38;;;-2.70;99.90;;;;;;4955895;28;20568;-75
2021/12/21 02:30:13;;;;;;;21.42;9.38;;;-2.60;99.90;;;;;;4947095;29;20123;-75
2021/12/21 02:32:40;;;;;;;20.17;8.73;;;-2.70;99.90;;;;;;4936644;29;20109;-74
2021/12/21 02:35:07;;;;;;;18.85;8.45;;;-2.70;99.90;;;;;;4953809;29;20070;-81
2021/12/21 02:37:32;;;;;;;20.85;8.52;;;-2.70;99.90;;;;;;4952535;29;20086;-78
2021/12/21 02:39:58;;;;;;;23.88;8.95;;;-2.70;99.90;;;;;;4936261;29;20082;-77
2021/12/21 02:42:24;;;;;;;20.90;8.32;;;-2.70;99.90;;;;;;4953126;29;20058;-75
2021/12/21 02:44:53;;;;;;;24.35;8.63;;;-2.70;99.90;;;;;;4936257;28;20523;-78
2021/12/21 02:47:19;;;;;;;16.20;8.18;;;-2.70;99.90;;;;;;4971769;28;20066;-78
2021/12/21 02:49:45;;;;;;;22.05;8.57;;;-2.70;99.90;;;;;;4934347;28;20050;-79
2021/12/21 02:52:11;;;;;;;15.90;7.93;;;-2.80;99.90;;;;;;4970750;28;20054;-76
2021/12/21 02:54:36;;;;;;;17.35;7.57;;;-2.80;99.90;;;;;;4972340;28;20057;-76
2021/12/21 02:57:02;;;;;;;23.35;7.70;;;-2.80;99.90;;;;;;4955344;28;20058;-75
2021/12/21 02:59:28;;;;;;;14.00;7.20;;;-2.90;99.90;;;;;;4955178;28;20594;-75
2021/12/21 03:01:54;;;;;;;19.23;8.68;;;-2.90;99.90;;;;;;4955164;28;20051;-75
2021/12/21 03:04:20;;;;;;;16.60;7.15;;;-2.90;99.90;;;;;;4939019;28;20093;-74
2021/12/21 03:09:38;;;;;;;20.65;9.43;;;-2.90;99.90;;;;;;4954454;28;20090;-75
2021/12/21 03:14:34;;;;;;;19.17;8.30;;;-2.90;99.90;;;;;;4939534;28;20077;-75
2021/12/21 03:17:00;;;;;;;;;;;-2.90;99.90;;;;;;4972612;28;20042;-75
2021/12/21 03:19:26;;;;;;;21.02;8.52;;;-2.00;99.90;;;;;;4951163;29;19977;-75
2021/12/21 03:21:53;;;;;;;25.38;8.48;;;-3.00;99.90;;;;;;4952459;29;20549;-75
2021/12/21 03:24:20;;;;;;;16.80;8.30;;;-3.00;99.90;;;;;;4952002;29;20047;-74
2021/12/21 03:26:45;;;;;;;22.13;9.55;;;-2.90;99.90;;;;;;4935816;29;20401;-76
2021/12/21 03:29:11;;;;;;;29.95;10.25;;;-1.90;99.90;;;;;;4935587;29;20067;-75
2021/12/21 03:31:37;;;;;;;20.60;8.50;;;-2.90;99.90;;;;;;4952090;29;20050;-79
2021/12/21 03:34:04;;;;;;;22.48;8.50;;;-2.90;99.90;;;;;;4936004;29;20058;-76
2021/12/21 03:36:30;;;;;;;21.60;8.50;;;-2.90;99.90;;;;;;4935631;29;20101;-76
2021/12/21 03:39:05;;;;;;;23.55;8.50;;;-2.90;99.90;;;;;;4939246;29;20082;-75
2021/12/21 03:41:31;;;;;;;15.20;7.93;;;-2.90;99.90;;;;;;4935181;29;20497;-78
2021/12/21 03:44:00;;;;;;;19.17;8.35;;;-2.90;99.90;;;;;;4935527;29;20043;-75
2021/12/21 03:46:26;;;;;;;16.75;8.55;;;-2.90;99.90;;;;;;4952438;28;20073;-75
2021/12/21 03:48:52;;;;;;;19.63;8.63;;;-2.90;99.90;;;;;;4954692;28;20051;-76
2021/12/21 03:51:20;;;;;;;16.88;8.02;;;-2.90;99.90;;;;;;4971702;28;20505;-76
2021/12/21 03:53:47;;;;;;;17.15;8.63;;;-3.00;99.90;;;;;;4938149;28;20053;-75
2021/12/21 03:58:42;;;;;;;16.65;8.60;;;-3.00;99.90;;;;;;4954406;28;20055;-75
2021/12/21 04:01:09;;;;;;;17.23;8.52;;;-3.00;99.90;;;;;;4972191;28;20496;-76
2021/12/21 04:03:35;;;;;;;14.32;7.32;;;-3.00;99.90;;;;;;4971372;28;20051;-75
2021/12/21 04:06:00;;;;;;;16.45;8.38;;;-2.90;99.90;;;;;;4955060;28;20121;-75
2021/12/21 04:08:26;;;;;;;17.27;8.10;;;-3.00;99.90;;;;;;4970809;28;20481;-75
2021/12/21 04:10:52;;;;;;;14.07;7.90;;;-3.00;99.90;;;;;;4972186;28;20047;-75
2021/12/21 04:13:18;;;;;;;21.05;8.05;;;-3.00;99.90;;;;;;4954694;28;20049;-84
2021/12/21 04:15:44;;;;;;;15.00;7.70;;;-3.00;99.90;;;;;;4955223;28;20051;-75
2021/12/21 04:18:13;;;;;;;16.75;8.15;;;-3.10;99.90;;;;;;4954504;28;20130;-75
2021/12/21 04:20:40;;;;;;;18.00;8.23;;;-3.10;99.90;;;;;;4953325;28;20047;-74
2021/12/21 04:23:07;;;;;;;21.33;8.90;;;-3.20;99.90;;;;;;4954200;28;20129;-74
2021/12/21 04:25:33;;;;;;;21.67;8.98;;;-3.20;99.90;;;;;;4954957;28;20061;-74
2021/12/21 04:28:00;;;;;;;21.38;7.95;;;-3.20;99.90;;;;;;4955251;28;20049;-75
2021/12/21 04:30:26;;;;;;;18.67;7.40;;;-3.20;99.90;;;;;;4955035;28;20062;-76
2021/12/21 04:32:52;;;;;;;17.23;7.78;;;-3.20;99.90;;;;;;4955147;28;20134;-76
2021/12/21 04:35:20;;;;;;;14.25;8.00;;;-3.20;99.90;;;;;;4971652;28;20134;-76
2021/12/21 04:37:56;;;;;;;22.02;9.48;;;-3.20;99.90;;;;;;4971821;28;20051;-75
2021/12/21 04:40:35;;;;;;;21.40;9.60;;;-2.20;99.90;;;;;;4972105;28;20127;-82
2021/12/21 04:43:01;;;;;;;21.30;8.77;;;-3.10;99.90;;;;;;4955627;28;20113;-75
2021/12/21 04:45:26;;;;;;;19.77;9.52;;;-3.10;99.90;;;;;;4972363;28;20492;-75
2021/12/21 04:47:52;;;;;;;25.67;9.95;;;-3.10;99.90;;;;;;4955543;28;20228;-75
2021/12/21 04:50:18;;;;;;;18.48;7.88;;;-3.10;99.90;;;;;;4939715;28;20130;-77
2021/12/21 04:52:43;;;;;;;14.15;7.38;;;-3.10;99.90;;;;;;4954671;28;20046;-75
2021/12/21 04:55:09;;;;;;;12.23;6.45;;;-3.10;99.90;;;;;;4955621;28;20369;-75
2021/12/21 04:57:35;;;;;;;14.73;6.50;;;-3.20;99.90;;;;;;4971429;28;20083;-75
2021/12/21 05:00:01;;;;;;;15.20;6.82;;;-3.20;99.90;;;;;;4955502;28;20473;-75
2021/12/21 05:02:27;;;;;;;13.60;7.47;;;-2.70;99.90;;;;;;4939244;28;20050;-78
2021/12/21 05:04:52;;;;;;;11.23;6.35;;;-3.20;99.90;;;;;;4972480;28;20050;-77
2021/12/21 05:07:23;;;;;;;15.57;6.15;;;-3.30;99.90;;;;;;4955394;28;20082;-75
2021/12/21 05:09:55;;;;;;;12.68;6.22;;;-3.30;99.90;;;;;;4954093;28;20112;-75
2021/12/21 05:12:21;;;;;;;13.38;5.60;;;-3.30;99.90;;;;;;4958689;28;20050;-75
2021/12/21 05:14:47;;;;;;;9.30;4.82;;;-3.30;99.90;;;;;;4975848;28;20058;-76
2021/12/21 05:17:13;;;;;;;11.40;4.80;;;-3.30;99.90;;;;;;4975920;28;20051;-75
2021/12/21 05:19:38;;;;;;;16.60;5.88;;;-3.30;99.90;;;;;;4975430;28;20485;-75
2021/12/21 05:22:04;;;;;;;11.88;5.10;;;-3.30;99.90;;;;;;4974430;28;20050;-75
2021/12/21 05:24:30;;;;;;;12.18;7.03;;;-3.30;99.90;;;;;;4958433;28;20136;-75
2021/12/21 05:26:56;;;;;;;14.75;6.93;;;-3.30;99.90;;;;;;4958357;28;20047;-75
2021/12/21 05:29:23;;;;;;;18.40;7.78;;;-3.40;99.90;;;;;;4973468;28;20548;-76
2021/12/21 05:31:49;;;;;;;16.27;7.15;;;-3.40;99.90;;;;;;4957879;28;20775;-75
2021/12/21 05:34:16;;;;;;;16.70;7.10;;;-3.40;99.90;;;;;;4915911;29;20055;-75
2021/12/21 05:36:42;;;;;;;12.55;7.20;;;-3.50;99.90;;;;;;4939188;29;20047;-75
2021/12/21 05:39:16;;;;;;;;;;;-3.50;99.90;;;;;;4939617;29;20047;-76
2021/12/21 05:44:15;;;;;;;13.85;6.50;;;-3.50;99.90;;;;;;4939607;29;20382;-75
2021/12/21 05:46:41;;;;;;;19.60;7.18;;;-3.60;99.90;;;;;;4923244;29;20059;-75
2021/12/21 05:49:07;;;;;;;15.77;6.90;;;-3.60;99.90;;;;;;4907754;29;20051;-75
2021/12/21 05:51:33;;;;;;;21.70;7.50;;;-3.60;99.90;;;;;;4955938;29;20501;-77
2021/12/21 05:53:59;;;;;;;;;;;-3.60;99.90;;;;;;4939132;29;20155;-77
2021/12/21 05:56:24;;;;;;;20.20;6.75;;;-2.60;99.90;;;;;;4939269;29;20412;-75
2021/12/21 05:58:50;;;;;;;18.30;7.53;;;-3.60;99.90;;;;;;4954789;29;20047;-75
2021/12/21 06:01:16;;;;;;;17.30;7.28;;;-3.50;99.90;;;;;;4938646;29;20374;-75
2021/12/21 06:03:42;;;;;;;17.33;6.28;;;-3.60;99.90;;;;;;4954435;29;20389;-75
2021/12/21 06:06:12;;;;;;;17.00;6.93;;;-3.60;99.90;;;;;;4956010;29;20515;-75
2021/12/21 06:08:38;;;;;;;18.00;8.05;;;-3.50;99.90;;;;;;4937927;29;20054;-75
2021/12/21 06:11:06;;;;;;;18.67;7.78;;;-3.10;99.90;;;;;;4951718;28;20058;-74
2021/12/21 06:26:47;;;;;;;16.90;7.15;;;-3.60;99.90;;;;;;4973356;28;20059;-74
2021/12/21 06:29:13;;;;;;;25.83;7.97;;;-3.60;99.90;;;;;;4974836;28;20385;-75
2021/12/21 06:31:39;;;;;;;16.25;7.25;;;-3.60;99.90;;;;;;4974459;28;20493;-75
2021/12/21 06:34:05;;;;;;;17.17;7.38;;;-3.60;99.90;;;;;;4950217;29;20051;-74
2021/12/21 06:36:31;;;;;;;19.08;8.35;;;-3.60;99.90;;;;;;4938490;29;20050;-75
2021/12/21 06:38:57;;;;;;;17.63;7.35;;;-3.60;99.90;;;;;;4938388;28;20051;-75
2021/12/21 06:41:23;;;;;;;13.05;7.28;;;-2.80;99.90;;;;;;4957286;28;20055;-79
2021/12/21 06:43:49;;;;;;;17.00;7.53;;;-3.60;99.90;;;;;;4973665;28;20061;-76
2021/12/21 06:46:40;;;;;;;24.50;8.02;;;-3.60;99.90;;;;;;4941096;28;20054;-74
2021/12/21 06:51:51;;;;;;;15.38;7.70;;;-3.40;99.90;;;;;;4923611;29;20063;-74
2021/12/21 06:54:18;;;;;;;16.83;6.90;;;-3.50;99.90;;;;;;4937340;29;20150;-74
2021/12/21 06:56:44;;;;;;;15.90;6.60;;;-3.60;99.90;;;;;;4938065;28;20382;-75
2021/12/21 06:59:10;;;;;;;14.10;7.10;;;-3.60;99.90;;;;;;4940837;28;20057;-74
2021/12/21 07:01:38;;;;;;;;;;;-3.60;99.90;;;;;;4956846;28;20507;-82
2021/12/21 07:04:06;;;;;;;16.38;7.65;;;-3.60;99.90;;;;;;4956238;28;20616;-74
2021/12/21 07:06:34;;;;;;;14.93;7.03;;;-3.60;99.90;;;;;;4956596;28;20051;-76
2021/12/21 07:11:46;;;;;;;18.35;7.47;;;-3.70;99.90;;;;;;4956497;28;20063;-76
2021/12/21 07:19:44;;;;;;;15.60;7.43;;;-3.70;99.90;;;;;;4955501;28;20066;-75
2021/12/21 07:22:10;;;;;;;12.98;7.47;;;-3.70;99.90;;;;;;4972807;28;20085;-74
2021/12/21 07:24:37;;;;;;;20.95;7.35;;;-3.70;99.90;;;;;;4955801;28;20054;-73
2021/12/21 07:27:03;;;;;;;17.50;8.07;;;-3.70;99.90;;;;;;4972428;28;20045;-73
2021/12/21 07:29:28;;;;;;;22.00;8.82;;;-3.70;99.90;;;;;;4972730;28;20078;-73
2021/12/21 07:31:54;;;;;;;19.33;8.27;;;-3.60;99.90;;;;;;4955196;28;20082;-73
2021/12/21 07:34:20;;;;;;;14.82;7.95;;;-3.60;99.90;;;;;;4972892;28;20042;-74
2021/12/21 07:36:46;;;;;;;14.10;8.30;;;-3.60;99.90;;;;;;4956021;28;20105;-73
2021/12/21 07:39:13;;;;;;;;;;;-3.60;99.90;;;;;;4954945;28;20046;-73
2021/12/21 07:41:40;;;;;;;17.25;7.95;;;-3.60;99.90;;;;;;4955281;28;20287;-80
2021/12/21 07:44:06;;;;;;;14.10;7.22;;;-3.60;99.90;;;;;;4973658;28;20125;-74
2021/12/21 07:46:32;;;;;;;15.50;6.75;;;-3.60;99.90;;;;;;4973350;28;20137;-74
2021/12/21 07:48:58;;;;;;;16.63;8.70;;;-3.60;99.90;;;;;;4972815;28;20047;-76
2021/12/21 07:51:24;;;;;;;17.40;8.13;;;-3.60;99.90;;;;;;4940703;28;20050;-74
2021/12/21 07:53:51;;;;;;;11.20;6.75;;;-2.90;99.90;;;;;;4955482;28;20047;-74
2021/12/21 07:56:17;;;;;;;12.35;6.97;;;-3.60;99.90;;;;;;4973810;28;20069;-74
2021/12/21 07:58:45;;;;;;;11.82;6.53;;;-3.60;99.90;;;;;;4956124;28;20066;-74
2021/12/21 08:01:11;;;;;;;15.10;6.55;;;-3.60;99.90;;;;;;4956079;28;20043;-78
2021/12/21 08:03:37;;;;;;;11.40;6.50;;;-3.60;99.90;;;;;;4941365;28;20070;-74
2021/12/21 08:06:05;;;;;;;15.55;7.57;;;-3.50;99.90;;;;;;4971391;28;20151;-74
2021/12/21 08:08:31;;;;;;;17.00;7.75;;;-3.50;99.90;;;;;;4948306;29;20062;-73
2021/12/21 08:11:12;;;;;;;14.60;7.15;;;-3.50;99.90;;;;;;4969101;28;20094;-75
2021/12/21 08:13:40;;;;;;;23.38;8.63;;;-3.50;99.90;;;;;;4955970;28;20046;-74
2021/12/21 08:16:07;;;;;;;42.83;12.30;;;-3.80;99.90;;;;;;4973466;28;20050;-74
2021/12/21 08:18:33;;;;;;;91.22;18.50;;;-3.40;99.90;;;;;;4955759;28;20147;-74
2021/12/21 08:20:59;;;;;;;;;;;-3.30;99.90;;;;;;4955429;28;20455;-74
2021/12/21 08:23:26;;;;;;;112.22;18.25;;;-3.30;99.90;;;;;;4970851;28;20009;-75
2021/12/21 08:25:52;;;;;;;72.53;18.13;;;-3.20;99.90;;;;;;4955568;28;20058;-73
2021/12/21 08:28:18;;;;;;;63.03;15.18;;;-3.20;99.90;;;;;;4954704;28;20105;-74
2021/12/21 08:30:44;;;;;;;89.13;16.08;;;-3.10;99.90;;;;;;4938536;28;20054;-83
2021/12/21 08:33:10;;;;;;;56.53;13.85;;;-3.10;99.90;;;;;;4966589;28;20053;-74
2021/12/21 08:35:35;;;;;;;41.67;13.20;;;-3.20;99.90;;;;;;4955606;28;20051;-74
2021/12/21 08:38:05;;;;;;;53.22;13.93;;;-3.20;99.90;;;;;;4953593;28;20072;-73
2021/12/21 08:40:40;;;;;;;37.38;13.85;;;-3.20;99.90;;;;;;4955307;28;20735;-74
2021/12/21 08:43:13;;;;;;;48.55;14.10;;;-3.20;99.90;;;;;;4941711;28;20082;-74
2021/12/21 08:45:41;;;;;;;33.20;13.63;;;-3.20;99.90;;;;;;4976251;28;20057;-74
2021/12/21 08:48:08;;;;;;;30.10;13.65;;;-2.90;99.90;;;;;;4957571;28;20537;-74
2021/12/21 08:50:36;;;;;;;27.38;13.52;;;-3.20;99.90;;;;;;4965041;28;20039;-74
2021/12/21 08:53:02;;;;;;;29.83;13.77;;;-3.10;99.90;;;;;;4967420;28;20051;-73
2021/12/21 08:55:28;;;;;;;30.77;13.00;;;-3.10;99.90;;;;;;4942873;28;20116;-77
2021/12/21 08:57:54;;;;;;;36.13;14.00;;;-3.10;99.90;;;;;;4964222;28;20043;-75
2021/12/21 09:00:20;;;;;;;;;;;-3.00;99.90;;;;;;4946881;28;20055;-75
2021/12/21 09:02:46;;;;;;;30.80;12.77;;;-2.90;99.90;;;;;;4970286;28;19990;-78
2021/12/21 09:05:18;;;;;;;28.65;11.88;;;-2.90;99.90;;;;;;4969325;28;20042;-75
2021/12/21 09:07:46;;;;;;;23.15;11.02;;;-2.80;99.90;;;;;;4971129;28;20054;-74
2021/12/21 09:10:14;;;;;;;26.73;12.38;;;-2.80;99.90;;;;;;4944871;28;20053;-75
2021/12/21 09:12:40;;;;;;;25.77;12.65;;;-2.70;99.90;;;;;;4936698;28;20055;-76
2021/12/21 09:15:08;;;;;;;29.73;13.02;;;-2.10;99.90;;;;;;4935909;28;20501;-76
2021/12/21 09:17:33;;;;;;;27.67;13.38;;;-2.60;99.90;;;;;;4970817;28;20057;-74
2021/12/21 09:20:00;;;;;;;28.35;13.20;;;-2.60;99.90;;;;;;4966260;28;20058;-74
2021/12/21 09:22:26;;;;;;;39.55;15.27;;;-2.60;99.90;;;;;;4950086;28;20125;-75
2021/12/21 09:24:52;;;;;;;75.43;16.50;;;-2.50;99.90;;;;;;4952192;28;20047;-79
2021/12/21 09:27:18;;;;;;;41.65;15.02;;;-2.30;99.90;;;;;;4966964;28;20039;-74
2021/12/21 09:29:45;;;;;;;39.35;16.90;;;-2.40;99.90;;;;;;4934220;28;20046;-75
2021/12/21 09:32:13;;;;;;;30.33;15.38;;;-2.30;99.90;;;;;;4934310;28;20047;-76
2021/12/21 09:34:42;;;;;;;33.15;15.55;;;-2.30;99.90;;;;;;4951697;28;20412;-74
2021/12/21 09:37:14;;;;;;;28.20;15.82;;;-2.20;99.90;;;;;;4945754;28;20087;-74
2021/12/21 09:39:44;;;;;;;30.15;15.30;;;-2.20;99.90;;;;;;4956676;28;20055;-74
2021/12/21 09:42:14;;;;;;;30.13;15.80;;;-2.10;99.90;;;;;;4968187;28;20047;-74
2021/12/21 09:44:40;;;;;;;29.75;15.57;;;-2.10;99.90;;;;;;4972084;28;20050;-74
2021/12/21 09:47:09;;;;;;;33.72;15.73;;;-2.00;99.90;;;;;;4963299;28;20481;-73
2021/12/21 09:49:35;;;;;;;32.72;16.65;;;-2.00;99.90;;;;;;4957869;28;20073;-73
2021/12/21 09:52:03;;;;;;;35.58;16.70;;;-1.90;99.90;;;;;;4945094;28;20043;-76
2021/12/21 09:54:30;;;;;;;38.70;19.60;;;-1.90;99.90;;;;;;4950773;28;20117;-74
2021/12/21 09:56:56;;;;;;;43.85;19.90;;;-1.80;99.90;;;;;;4954014;28;20133;-77
2021/12/21 09:59:21;;;;;;;40.15;18.98;;;-1.70;99.90;;;;;;4938076;29;20047;-73
2021/12/21 10:01:47;;;;;;;37.85;18.40;;;-1.70;99.90;;;;;;4954740;29;20049;-73
2021/12/21 10:04:13;;;;;;;36.90;20.15;;;-1.60;99.90;;;;;;4937527;29;20063;-74
2021/12/21 10:06:49;;;;;;;39.17;18.83;;;-1.10;99.90;;;;;;4921807;29;20055;-75
2021/12/21 10:09:16;;;;;;;51.53;19.70;;;-1.50;99.90;;;;;;4953945;29;20966;-73
2021/12/21 10:11:44;;;;;;;38.28;18.95;;;-1.40;99.90;;;;;;4954395;29;20117;-79
2021/12/21 10:14:10;;;;;;;41.80;19.90;;;-1.30;99.90;;;;;;4937222;29;20055;-77
2021/12/21 10:16:36;;;;;;;;;;;-1.20;99.90;;;;;;4972964;28;20050;-77
2021/12/21 10:19:05;;;;;;;38.72;18.25;;;-1.20;99.90;;;;;;4955699;28;19926;-77
2021/12/21 10:21:31;;;;;;;43.35;20.65;;;-1.10;99.90;;;;;;4956453;28;20404;-74
2021/12/21 10:23:57;;;;;;;46.80;19.90;;;-1.00;99.90;;;;;;4967291;28;20050;-82
2021/12/21 10:26:29;;;;;;;44.97;21.80;;;-1.00;99.90;;;;;;4971562;28;20051;-73
2021/12/21 10:29:06;;;;;;;45.58;21.58;;;-0.90;99.90;;;;;;4952752;29;20133;-74
2021/12/21 10:31:40;;;;;;;42.33;20.33;;;-0.80;99.90;;;;;;4940527;28;20051;-73
2021/12/21 10:34:11;;;;;;;43.08;22.58;;;-0.70;99.90;;;;;;4960588;28;20047;-77
2021/12/21 10:36:51;;;;;;;45.47;21.20;;;-0.60;99.90;;;;;;4969275;28;20106;-75
2021/12/21 10:39:27;;;;;;;42.60;21.70;;;-0.50;99.90;;;;;;4947817;29;20051;-74
2021/12/21 10:41:59;;;;;;;41.50;21.83;;;-0.40;99.90;;;;;;4944679;28;20062;-76
2021/12/21 10:44:25;;;;;;;53.40;23.23;;;0.50;99.90;;;;;;4940895;28;20093;-75
2021/12/21 10:46:53;;;;;;;39.67;21.42;;;-0.30;99.90;;;;;;4969825;28;20125;-73
2021/12/21 10:49:23;;;;;;;40.25;20.65;;;-0.30;99.90;;;;;;4972380;28;20129;-73
2021/12/21 10:51:58;;;;;;;42.40;21.42;;;-0.20;99.90;;;;;;4972603;28;20115;-73
2021/12/21 10:54:32;;;;;;;46.08;21.77;;;-0.10;99.90;;;;;;4951270;29;20099;-74
2021/12/21 10:57:11;;;;;;;45.28;21.67;;;0.00;99.90;;;;;;4964755;28;20051;-74
2021/12/21 10:59:40;;;;;;;46.45;22.45;;;0.10;99.90;;;;;;4952999;28;20062;-73
2021/12/21 11:02:13;;;;;;;40.33;21.33;;;0.90;99.90;;;;;;4939093;28;20062;-74
2021/12/21 11:04:44;;;;;;;41.42;20.95;;;0.30;99.90;;;;;;4973147;28;20055;-74
2021/12/21 11:07:28;;;;;;;38.67;20.77;;;0.40;99.90;;;;;;4972020;28;20054;-73
2021/12/21 11:09:59;;;;;;;37.97;19.95;;;1.10;99.90;;;;;;4955310;28;20054;-74
2021/12/21 11:12:26;;;;;;;37.22;18.73;;;0.70;99.90;;;;;;4971865;28;20057;-74
2021/12/21 11:14:54;;;;;;;33.88;18.40;;;0.80;99.90;;;;;;4972803;28;20062;-74
2021/12/21 11:17:21;;;;;;;41.03;18.70;;;1.30;99.90;;;;;;4954971;28;20057;-73
2021/12/21 11:19:49;;;;;;;30.13;15.65;;;1.90;99.90;;;;;;4944188;29;20058;-74
2021/12/21 11:22:15;;;;;;;28.88;14.23;;;2.50;99.90;;;;;;4933395;29;20105;-73
2021/12/21 11:24:44;;;;;;;25.80;13.57;;;3.00;99.90;;;;;;4932804;29;20079;-74
2021/12/21 11:27:11;;;;;;;31.02;15.32;;;3.50;99.90;;;;;;4932835;29;20059;-75
2021/12/21 11:29:39;;;;;;;25.27;13.70;;;4.00;99.90;;;;;;4933426;29;20147;-77
2021/12/21 11:32:07;;;;;;;24.92;12.95;;;4.40;99.90;;;;;;4934342;29;20044;-82
2021/12/21 11:34:36;;;;;;;23.92;13.45;;;4.70;99.90;;;;;;4935032;29;20067;-74
2021/12/21 11:37:20;;;;;;;21.55;12.13;;;4.90;99.90;;;;;;4935109;29;20066;-75
2021/12/21 11:39:47;;;;;;;21.17;11.35;;;5.20;99.90;;;;;;4932264;29;20052;-76
2021/12/21 11:42:34;;;;;;;;;;;5.50;99.90;;;;;;4933196;29;20486;-76
2021/12/21 11:45:03;;;;;;;22.47;10.47;;;5.70;99.90;;;;;;4932444;29;20445;-75
2021/12/21 11:47:39;;;;;;;18.23;12.00;;;6.00;99.90;;;;;;4917708;29;20295;-77
2021/12/21 11:50:08;;;;;;;26.88;13.00;;;6.10;99.90;;;;;;4915105;29;20052;-73
2021/12/21 11:52:47;;;;;;;23.83;12.05;;;6.30;99.90;;;;;;4898657;29;20122;-75
2021/12/21 11:55:15;;;;;;;21.08;10.63;;;6.50;99.90;;;;;;4915512;29;20143;-74
2021/12/21 11:57:42;;;;;;;23.10;10.65;;;6.60;99.90;;;;;;4917102;29;20052;-74
2021/12/21 12:00:13;;;;;;;19.75;9.90;;;6.80;99.90;;;;;;4915582;29;20087;-73
2021/12/21 12:02:40;;;;;;;22.70;11.85;;;6.90;99.90;;;;;;4900644;29;20051;-77
2021/12/21 12:05:27;;;;;;;23.48;12.60;;;7.00;99.90;;;;;;4908007;29;20063;-74
2021/12/21 12:08:09;;;;;;;20.85;11.32;;;7.00;99.90;;;;;;4913708;29;20589;-74
2021/12/21 12:10:38;;;;;;;20.63;11.57;;;7.20;99.90;;;;;;4927528;29;20107;-74
2021/12/21 12:13:25;;;;;;;23.30;11.00;;;7.30;99.90;;;;;;4933341;29;20056;-75
2021/12/21 12:16:00;;;;;;;25.33;10.65;;;7.60;99.90;;;;;;4915393;29;20151;-74
2021/12/21 12:18:32;;;;;;;22.83;11.40;;;7.70;99.90;;;;;;4918755;29;20064;-74
2021/12/21 12:21:09;;;;;;;18.90;11.00;;;7.90;99.90;;;;;;4952347;29;20062;-74
2021/12/21 12:24:01;;;;;;;21.23;10.88;;;8.10;99.90;;;;;;4955957;29;20052;-74
2021/12/21 12:26:31;;;;;;;22.58;10.82;;;8.40;99.90;;;;;;4973384;28;20408;-74
2021/12/21 12:29:17;;;;;;;24.65;11.02;;;8.70;99.90;;;;;;4958407;28;20050;-74
2021/12/21 12:31:56;;;;;;;21.67;11.30;;;8.80;99.90;;;;;;4959297;28;20101;-74
2021/12/21 12:34:28;;;;;;;23.90;11.88;;;8.80;99.90;;;;;;4949425;28;20297;-74
2021/12/21 12:36:55;;;;;;;26.25;12.10;;;8.80;99.90;;;;;;4952672;28;20101;-74
2021/12/21 12:39:43;;;;;;;20.17;11.27;;;9.00;99.90;;;;;;4941086;28;20054;-75
2021/12/21 12:42:27;;;;;;;22.45;11.45;;;9.10;99.90;;;;;;4957470;28;20102;-75
2021/12/21 12:45:13;;;;;;;20.42;10.30;;;9.30;99.90;;;;;;4948001;29;20076;-75
2021/12/21 12:47:47;;;;;;;23.33;11.55;;;9.20;99.90;;;;;;4934077;28;20500;-79
2021/12/21 12:50:42;;;;;;;23.92;10.02;;;9.20;99.90;;;;;;4951897;28;20139;-76
2021/12/21 12:53:08;;;;;;;18.77;10.13;;;9.30;99.90;;;;;;4950202;28;20062;-75
2021/12/21 12:55:37;;;;;;;25.63;9.95;;;9.50;99.90;;;;;;4941177;28;20053;-77
2021/12/21 12:58:12;;;;;;;20.98;9.88;;;9.70;99.90;;;;;;4957384;28;20056;-77
2021/12/21 13:00:41;;;;;;;21.42;10.18;;;9.90;99.90;;;;;;4957152;28;20632;-77
2021/12/21 13:03:09;;;;;;;23.00;9.68;;;10.10;99.90;;;;;;4941884;28;20050;-78
2021/12/21 13:05:54;;;;;;;22.92;9.75;;;10.30;99.90;;;;;;4957013;28;20055;-77
2021/12/21 13:08:26;;;;;;;21.75;9.25;;;10.40;99.90;;;;;;4951859;29;20051;-80
2021/12/21 13:10:58;;;;;;;19.13;9.63;;;10.60;99.90;;;;;;4966825;28;20082;-78
2021/12/21 13:13:47;;;;;;;22.95;9.50;;;10.80;99.90;;;;;;4939259;28;20482;-78
2021/12/21 13:16:15;;;;;;;22.60;10.00;;;10.90;99.90;;;;;;4957619;28;20063;-78
2021/12/21 13:18:45;;;;;;;19.17;10.25;;;10.90;99.90;;;;;;4956103;28;20779;-79
2021/12/21 13:22:01;;;;;;;17.75;9.93;;;10.90;98.50;;;;;;4935461;29;20086;-78
2021/12/21 13:24:35;;;;;;;17.38;9.63;;;10.80;96.30;;;;;;4933664;29;20068;-78
2021/12/21 13:27:08;;;;;;;20.52;10.25;;;10.90;97.60;;;;;;4934587;29;20118;-78
2021/12/21 13:29:35;;;;;;;18.63;10.48;;;10.90;96.10;;;;;;4933032;29;20110;-78
2021/12/21 13:32:11;;;;;;;19.88;10.18;;;10.90;95.00;;;;;;4934217;29;20532;-78
2021/12/21 13:34:39;;;;;;;24.50;10.98;;;11.00;93.50;;;;;;4914505;29;20423;-79
2021/12/21 13:37:07;;;;;;;22.17;11.63;;;11.10;93.80;;;;;;4916148;29;20070;-78
2021/12/21 13:39:39;;;;;;;21.00;10.85;;;11.30;92.50;;;;;;4929043;29;20075;-80
2021/12/21 13:42:10;;;;;;;21.42;12.10;;;11.50;91.70;;;;;;4934108;29;20054;-80
2021/12/21 13:44:41;;;;;;;23.58;12.68;;;11.60;90.50;;;;;;4918102;29;20502;-79
2021/12/21 13:47:29;;;;;;;26.52;13.88;;;11.70;90.20;;;;;;4934735;29;20052;-79